sensor_id;sensor_type;location;lat;lon;timestamp;pressure;altitude;pressure_sealevel;temperature;humidity
9335;BME280;4706;41.844;26.082;2023-05-17T00:01:43;100145.97;;;17.60;94.26
9335;BME280;4706;41.844;26.082;2023-05-17T00:04:09;100149.59;;;17.76;93.66
9335;BME280;4706;41.844;26.082;2023-05-17T00:06:34;100154.88;;;17.81;93.36
9335;BME280;4706;41.844;26.082;2023-05-17T00:09:00;100149.69;;;17.80;92.76
9335;BME280;4706;41.844;26.082;2023-05-17T00:11:25;100140.63;;;17.83;92.95
9335;BME280;4706;41.844;26.082;2023-05-17T00:13:51;100124.34;;;17.85;95.11
9335;BME280;4706;41.844;26.082;2023-05-17T00:16:16;100126.44;;;17.88;97.94
9335;BME280;4706;41.844;26.082;2023-05-17T00:18:42;100119.22;;;18.03;95.44
9335;BME280;4706;41.844;26.082;2023-05-17T00:21:07;100126.41;;;18.04;95.63
9335;BME280;4706;41.844;26.082;2023-05-17T00:23:33;100118.34;;;17.99;96.84
9335;BME280;4706;41.844;26.082;2023-05-17T00:25:58;100091.59;;;17.78;98.46
9335;BME280;4706;41.844;26.082;2023-05-17T00:28:24;100116.69;;;17.98;97.93
9335;BME280;4706;41.844;26.082;2023-05-17T00:30:49;100119.31;;;18.06;96.66
9335;BME280;4706;41.844;26.082;2023-05-17T00:33:15;100113.31;;;17.88;98.20
9335;BME280;4706;41.844;26.082;2023-05-17T00:35:40;100114.50;;;17.87;100.00
9335;BME280;4706;41.844;26.082;2023-05-17T00:38:06;100126.59;;;17.95;98.54
9335;BME280;4706;41.844;26.082;2023-05-17T00:40:32;100133.25;;;17.90;96.68
9335;BME280;4706;41.844;26.082;2023-05-17T00:42:57;100135.75;;;17.95;96.46
9335;BME280;4706;41.844;26.082;2023-05-17T00:45:23;100135.38;;;17.97;98.47
9335;BME280;4706;41.844;26.082;2023-05-17T00:47:48;100134.03;;;18.07;99.23
9335;BME280;4706;41.844;26.082;2023-05-17T00:50:14;100126.84;;;18.06;98.98
9335;BME280;4706;41.844;26.082;2023-05-17T00:52:39;100119.66;;;18.05;99.09
9335;BME280;4706;41.844;26.082;2023-05-17T00:55:05;100148.63;;;18.19;97.93
9335;BME280;4706;41.844;26.082;2023-05-17T00:57:31;100150.69;;;18.23;97.10
9335;BME280;4706;41.844;26.082;2023-05-17T00:59:57;100156.34;;;18.26;97.95
9335;BME280;4706;41.844;26.082;2023-05-17T01:02:23;100154.72;;;18.25;96.30
9335;BME280;4706;41.844;26.082;2023-05-17T01:04:49;100173.41;;;18.25;95.58
9335;BME280;4706;41.844;26.082;2023-05-17T01:07:15;100194.78;;;18.20;97.27
9335;BME280;4706;41.844;26.082;2023-05-17T01:09:42;100185.63;;;18.20;95.73
9335;BME280;4706;41.844;26.082;2023-05-17T01:17:33;100195.22;;;18.23;95.48
9335;BME280;4706;41.844;26.082;2023-05-17T01:22:38;100193.00;;;18.28;97.10
9335;BME280;4706;41.844;26.082;2023-05-17T01:28:07;100206.16;;;18.31;98.84
9335;BME280;4706;41.844;26.082;2023-05-17T01:30:35;100206.53;;;18.30;98.65
9335;BME280;4706;41.844;26.082;2023-05-17T01:33:03;100201.88;;;18.18;99.76
9335;BME280;4706;41.844;26.082;2023-05-17T01:35:28;100198.03;;;18.07;99.94
9335;BME280;4706;41.844;26.082;2023-05-17T01:37:54;100194.97;;;18.12;98.51
9335;BME280;4706;41.844;26.082;2023-05-17T01:40:20;100195.78;;;18.12;97.54
9335;BME280;4706;41.844;26.082;2023-05-17T01:42:52;100189.94;;;18.17;97.34
9335;BME280;4706;41.844;26.082;2023-05-17T01:45:29;100154.94;;;18.01;96.18
9335;BME280;4706;41.844;26.082;2023-05-17T01:48:09;100185.19;;;18.18;97.21
9335;BME280;4706;41.844;26.082;2023-05-17T01:50:38;100175.47;;;18.12;98.09
9335;BME280;4706;41.844;26.082;2023-05-17T01:53:10;100182.09;;;18.23;98.30
9335;BME280;4706;41.844;26.082;2023-05-17T01:55:49;100184.91;;;18.23;99.34
9335;BME280;4706;41.844;26.082;2023-05-17T01:58:17;100182.22;;;18.11;98.98
9335;BME280;4706;41.844;26.082;2023-05-17T02:00:48;100192.75;;;18.02;98.48
9335;BME280;4706;41.844;26.082;2023-05-17T02:03:17;100179.09;;;17.96;97.98
9335;BME280;4706;41.844;26.082;2023-05-17T02:05:44;100174.69;;;17.95;97.01
9335;BME280;4706;41.844;26.082;2023-05-17T02:08:09;100181.25;;;18.03;97.39
9335;BME280;4706;41.844;26.082;2023-05-17T02:10:35;100179.09;;;17.96;98.65
9335;BME280;4706;41.844;26.082;2023-05-17T02:13:00;100187.91;;;17.99;99.23
9335;BME280;4706;41.844;26.082;2023-05-17T02:15:26;100181.69;;;17.89;100.00
9335;BME280;4706;41.844;26.082;2023-05-17T02:17:51;100175.69;;;17.87;98.28
9335;BME280;4706;41.844;26.082;2023-05-17T02:20:17;100176.13;;;17.89;96.81
9335;BME280;4706;41.844;26.082;2023-05-17T02:22:43;100185.03;;;17.95;96.74
9335;BME280;4706;41.844;26.082;2023-05-17T02:25:08;100163.91;;;17.94;98.32
9335;BME280;4706;41.844;26.082;2023-05-17T02:27:35;100159.81;;;17.88;98.13
9335;BME280;4706;41.844;26.082;2023-05-17T02:30:01;100170.56;;;17.89;98.54
9335;BME280;4706;41.844;26.082;2023-05-17T02:32:27;100167.06;;;17.92;97.90
9335;BME280;4706;41.844;26.082;2023-05-17T02:34:54;100172.72;;;17.96;96.89
9335;BME280;4706;41.844;26.082;2023-05-17T02:37:19;100168.69;;;17.93;96.68
9335;BME280;4706;41.844;26.082;2023-05-17T02:39:45;100167.44;;;17.91;95.97
9335;BME280;4706;41.844;26.082;2023-05-17T02:42:10;100170.66;;;17.93;96.05
9335;BME280;4706;41.844;26.082;2023-05-17T02:44:36;100180.19;;;17.92;96.77
9335;BME280;4706;41.844;26.082;2023-05-17T02:47:01;100179.00;;;17.93;96.69
9335;BME280;4706;41.844;26.082;2023-05-17T02:49:26;100184.22;;;17.94;96.17
9335;BME280;4706;41.844;26.082;2023-05-17T02:51:52;100187.25;;;17.89;96.20
9335;BME280;4706;41.844;26.082;2023-05-17T02:54:18;100169.69;;;17.85;96.25
9335;BME280;4706;41.844;26.082;2023-05-17T02:56:43;100191.22;;;17.88;96.93
9335;BME280;4706;41.844;26.082;2023-05-17T02:59:09;100187.81;;;17.79;96.79
9335;BME280;4706;41.844;26.082;2023-05-17T03:01:34;100185.03;;;17.79;97.47
9335;BME280;4706;41.844;26.082;2023-05-17T03:04:00;100180.50;;;17.75;97.43
9335;BME280;4706;41.844;26.082;2023-05-17T03:06:25;100191.13;;;17.85;98.24
9335;BME280;4706;41.844;26.082;2023-05-17T03:08:51;100193.38;;;17.79;98.09
9335;BME280;4706;41.844;26.082;2023-05-17T03:11:17;100193.50;;;17.70;98.79
9335;BME280;4706;41.844;26.082;2023-05-17T03:13:42;100204.47;;;22.37;98.72
9335;BME280;4706;41.844;26.082;2023-05-17T03:16:08;100194.00;;;25.18;68.84
9335;BME280;4706;41.844;26.082;2023-05-17T03:18:34;100198.66;;;24.15;64.89
9335;BME280;4706;41.844;26.082;2023-05-17T03:21:00;100206.09;;;23.11;67.87
9335;BME280;4706;41.844;26.082;2023-05-17T03:23:25;100208.31;;;22.18;71.55
9335;BME280;4706;41.844;26.082;2023-05-17T03:25:51;100217.31;;;21.53;73.81
9335;BME280;4706;41.844;26.082;2023-05-17T03:28:16;100224.16;;;20.92;76.69
9335;BME280;4706;41.844;26.082;2023-05-17T03:30:42;100212.56;;;20.36;79.73
9335;BME280;4706;41.844;26.082;2023-05-17T03:33:07;100211.69;;;20.06;82.27
9335;BME280;4706;41.844;26.082;2023-05-17T03:35:32;100216.50;;;19.82;83.33
9335;BME280;4706;41.844;26.082;2023-05-17T03:37:58;100203.16;;;19.53;84.79
9335;BME280;4706;41.844;26.082;2023-05-17T03:40:23;100218.38;;;19.36;86.72
9335;BME280;4706;41.844;26.082;2023-05-17T03:42:49;100216.13;;;19.22;87.30
9335;BME280;4706;41.844;26.082;2023-05-17T03:45:16;100220.09;;;19.02;87.92
9335;BME280;4706;41.844;26.082;2023-05-17T03:47:41;100203.34;;;18.82;89.70
9335;BME280;4706;41.844;26.082;2023-05-17T03:50:07;100207.25;;;18.78;90.42
9335;BME280;4706;41.844;26.082;2023-05-17T03:52:34;100209.38;;;18.68;92.24
9335;BME280;4706;41.844;26.082;2023-05-17T03:54:59;100211.13;;;18.57;93.02
9335;BME280;4706;41.844;26.082;2023-05-17T03:57:25;100217.47;;;18.38;95.17
9335;BME280;4706;41.844;26.082;2023-05-17T03:59:50;100222.34;;;18.26;94.57
9335;BME280;4706;41.844;26.082;2023-05-17T04:02:16;100230.63;;;18.22;95.62
9335;BME280;4706;41.844;26.082;2023-05-17T04:04:48;100234.19;;;18.23;95.82
9335;BME280;4706;41.844;26.082;2023-05-17T04:07:14;100232.94;;;18.20;96.64
9335;BME280;4706;41.844;26.082;2023-05-17T04:09:39;100223.16;;;18.10;97.04
9335;BME280;4706;41.844;26.082;2023-05-17T04:12:05;100222.28;;;18.06;97.18
9335;BME280;4706;41.844;26.082;2023-05-17T04:14:30;100235.38;;;18.06;98.09
9335;BME280;4706;41.844;26.082;2023-05-17T04:16:56;100245.69;;;18.05;98.35
9335;BME280;4706;41.844;26.082;2023-05-17T04:19:21;100237.44;;;17.93;99.14
9335;BME280;4706;41.844;26.082;2023-05-17T04:21:47;100248.22;;;18.10;99.62
9335;BME280;4706;41.844;26.082;2023-05-17T04:24:12;100243.66;;;18.02;99.12
9335;BME280;4706;41.844;26.082;2023-05-17T04:26:38;100236.09;;;17.87;99.48
9335;BME280;4706;41.844;26.082;2023-05-17T04:29:04;100239.78;;;17.91;99.52
9335;BME280;4706;41.844;26.082;2023-05-17T04:31:31;100242.19;;;17.92;100.00
9335;BME280;4706;41.844;26.082;2023-05-17T04:33:57;100239.22;;;18.01;99.51
9335;BME280;4706;41.844;26.082;2023-05-17T04:36:22;100242.28;;;17.80;100.00
9335;BME280;4706;41.844;26.082;2023-05-17T04:38:47;100266.28;;;17.72;100.00
9335;BME280;4706;41.844;26.082;2023-05-17T04:41:13;100275.53;;;17.61;100.00
9335;BME280;4706;41.844;26.082;2023-05-17T04:43:38;100273.78;;;17.56;100.00
9335;BME280;4706;41.844;26.082;2023-05-17T04:46:04;100268.78;;;17.62;100.00
9335;BME280;4706;41.844;26.082;2023-05-17T04:48:30;100261.34;;;17.66;100.00
9335;BME280;4706;41.844;26.082;2023-05-17T04:51:00;100246.16;;;17.63;100.00
9335;BME280;4706;41.844;26.082;2023-05-17T04:53:26;100257.91;;;17.85;100.00
9335;BME280;4706;41.844;26.082;2023-05-17T04:55:51;100247.06;;;17.95;100.00
9335;BME280;4706;41.844;26.082;2023-05-17T04:58:17;100245.06;;;17.96;100.00
9335;BME280;4706;41.844;26.082;2023-05-17T05:00:43;100252.34;;;17.85;100.00
9335;BME280;4706;41.844;26.082;2023-05-17T05:03:08;100248.75;;;17.84;100.00
9335;BME280;4706;41.844;26.082;2023-05-17T05:05:34;100255.31;;;17.92;100.00
9335;BME280;4706;41.844;26.082;2023-05-17T05:07:59;100262.84;;;17.91;100.00
9335;BME280;4706;41.844;26.082;2023-05-17T05:10:25;100244.25;;;17.95;100.00
9335;BME280;4706;41.844;26.082;2023-05-17T05:12:53;100254.69;;;17.99;100.00
9335;BME280;4706;41.844;26.082;2023-05-17T05:15:18;100244.97;;;17.92;100.00
9335;BME280;4706;41.844;26.082;2023-05-17T05:17:44;100254.13;;;18.09;100.00
9335;BME280;4706;41.844;26.082;2023-05-17T05:20:10;100258.81;;;18.05;100.00
9335;BME280;4706;41.844;26.082;2023-05-17T05:22:35;100259.59;;;18.05;100.00
9335;BME280;4706;41.844;26.082;2023-05-17T05:25:01;100244.69;;;17.98;100.00
9335;BME280;4706;41.844;26.082;2023-05-17T05:27:26;100263.38;;;17.97;100.00
9335;BME280;4706;41.844;26.082;2023-05-17T05:29:53;100266.53;;;17.95;100.00
9335;BME280;4706;41.844;26.082;2023-05-17T05:32:19;100276.16;;;17.98;100.00
9335;BME280;4706;41.844;26.082;2023-05-17T05:34:44;100275.16;;;17.90;100.00
9335;BME280;4706;41.844;26.082;2023-05-17T05:37:10;100277.56;;;17.92;100.00
9335;BME280;4706;41.844;26.082;2023-05-17T05:39:35;100284.03;;;18.12;100.00
9335;BME280;4706;41.844;26.082;2023-05-17T05:42:01;100266.53;;;18.11;100.00
9335;BME280;4706;41.844;26.082;2023-05-17T05:44:29;100281.09;;;18.20;100.00
9335;BME280;4706;41.844;26.082;2023-05-17T05:46:55;100276.41;;;18.25;100.00
9335;BME280;4706;41.844;26.082;2023-05-17T05:49:20;100269.28;;;18.27;100.00
9335;BME280;4706;41.844;26.082;2023-05-17T05:51:45;100270.56;;;18.30;100.00
9335;BME280;4706;41.844;26.082;2023-05-17T05:54:12;100270.03;;;18.40;100.00
9335;BME280;4706;41.844;26.082;2023-05-17T05:56:38;100269.75;;;18.45;100.00
9335;BME280;4706;41.844;26.082;2023-05-17T05:59:03;100278.19;;;18.49;100.00
9335;BME280;4706;41.844;26.082;2023-05-17T06:01:30;100281.34;;;18.47;100.00
9335;BME280;4706;41.844;26.082;2023-05-17T06:03:56;100278.38;;;18.40;100.00
9335;BME280;4706;41.844;26.082;2023-05-17T06:06:21;100266.78;;;18.38;100.00
9335;BME280;4706;41.844;26.082;2023-05-17T06:08:47;100273.97;;;18.39;100.00
9335;BME280;4706;41.844;26.082;2023-05-17T06:11:13;100270.81;;;18.56;100.00
9335;BME280;4706;41.844;26.082;2023-05-17T06:13:38;100267.75;;;18.45;100.00
9335;BME280;4706;41.844;26.082;2023-05-17T06:16:04;100270.28;;;18.51;100.00
9335;BME280;4706;41.844;26.082;2023-05-17T06:18:30;100265.53;;;18.51;100.00
9335;BME280;4706;41.844;26.082;2023-05-17T06:20:55;100275.19;;;18.57;100.00
9335;BME280;4706;41.844;26.082;2023-05-17T06:23:21;100261.34;;;18.61;100.00
9335;BME280;4706;41.844;26.082;2023-05-17T06:25:46;100268.88;;;18.76;100.00
9335;BME280;4706;41.844;26.082;2023-05-17T06:28:12;100266.34;;;18.87;100.00
9335;BME280;4706;41.844;26.082;2023-05-17T06:30:37;100257.72;;;18.92;100.00
9335;BME280;4706;41.844;26.082;2023-05-17T06:33:03;100263.56;;;19.06;100.00
9335;BME280;4706;41.844;26.082;2023-05-17T06:35:29;100264.59;;;19.17;100.00
9335;BME280;4706;41.844;26.082;2023-05-17T06:37:55;100263.00;;;19.16;100.00
9335;BME280;4706;41.844;26.082;2023-05-17T06:40:21;100249.38;;;19.11;100.00
9335;BME280;4706;41.844;26.082;2023-05-17T06:42:46;100246.50;;;19.27;100.00
9335;BME280;4706;41.844;26.082;2023-05-17T06:45:12;100256.03;;;19.26;100.00
9335;BME280;4706;41.844;26.082;2023-05-17T06:47:38;100246.50;;;19.27;100.00
9335;BME280;4706;41.844;26.082;2023-05-17T06:50:05;100253.34;;;19.30;100.00
9335;BME280;4706;41.844;26.082;2023-05-17T06:52:31;100250.75;;;19.21;100.00
9335;BME280;4706;41.844;26.082;2023-05-17T06:54:56;100245.16;;;19.21;100.00
9335;BME280;4706;41.844;26.082;2023-05-17T06:57:22;100258.59;;;19.15;100.00
9335;BME280;4706;41.844;26.082;2023-05-17T06:59:48;100262.34;;;19.23;100.00
9335;BME280;4706;41.844;26.082;2023-05-17T07:02:14;100257.97;;;19.22;100.00
9335;BME280;4706;41.844;26.082;2023-05-17T07:04:39;100262.06;;;19.28;100.00
9335;BME280;4706;41.844;26.082;2023-05-17T07:07:05;100260.75;;;19.22;100.00
9335;BME280;4706;41.844;26.082;2023-05-17T07:09:30;100277.25;;;19.31;100.00
9335;BME280;4706;41.844;26.082;2023-05-17T07:11:56;100272.69;;;19.23;100.00
9335;BME280;4706;41.844;26.082;2023-05-17T07:14:22;100269.47;;;19.21;100.00
9335;BME280;4706;41.844;26.082;2023-05-17T07:16:47;100266.59;;;19.17;100.00
9335;BME280;4706;41.844;26.082;2023-05-17T07:19:13;100268.28;;;19.22;100.00
9335;BME280;4706;41.844;26.082;2023-05-17T07:21:39;100272.41;;;19.28;100.00
9335;BME280;4706;41.844;26.082;2023-05-17T07:24:04;100281.22;;;19.30;100.00
9335;BME280;4706;41.844;26.082;2023-05-17T07:26:30;100277.00;;;19.39;100.00
9335;BME280;4706;41.844;26.082;2023-05-17T07:28:56;100274.91;;;19.52;100.00
9335;BME280;4706;41.844;26.082;2023-05-17T07:31:21;100271.00;;;19.57;100.00
9335;BME280;4706;41.844;26.082;2023-05-17T07:33:46;100283.69;;;19.74;100.00
9335;BME280;4706;41.844;26.082;2023-05-17T07:36:12;100274.41;;;19.89;100.00
9335;BME280;4706;41.844;26.082;2023-05-17T07:38:37;100270.19;;;19.99;100.00
9335;BME280;4706;41.844;26.082;2023-05-17T07:41:03;100280.69;;;20.05;100.00
9335;BME280;4706;41.844;26.082;2023-05-17T07:43:34;100275.31;;;19.97;100.00
9335;BME280;4706;41.844;26.082;2023-05-17T07:46:00;100279.56;;;20.10;100.00
9335;BME280;4706;41.844;26.082;2023-05-17T07:48:25;100279.81;;;20.01;100.00
9335;BME280;4706;41.844;26.082;2023-05-17T07:50:51;100280.56;;;19.98;100.00
9335;BME280;4706;41.844;26.082;2023-05-17T07:53:16;100279.00;;;20.01;100.00
9335;BME280;4706;41.844;26.082;2023-05-17T07:55:42;100276.44;;;20.15;100.00
9335;BME280;4706;41.844;26.082;2023-05-17T07:58:11;100276.44;;;20.15;100.00
9335;BME280;4706;41.844;26.082;2023-05-17T08:00:37;100273.31;;;20.17;100.00
9335;BME280;4706;41.844;26.082;2023-05-17T08:03:02;100268.19;;;20.22;100.00
9335;BME280;4706;41.844;26.082;2023-05-17T08:05:28;100229.13;;;19.99;100.00
9335;BME280;4706;41.844;26.082;2023-05-17T08:07:53;100269.13;;;20.30;100.00
9335;BME280;4706;41.844;26.082;2023-05-17T08:10:19;100262.00;;;20.09;100.00
9335;BME280;4706;41.844;26.082;2023-05-17T08:12:44;100271.59;;;20.12;100.00
9335;BME280;4706;41.844;26.082;2023-05-17T08:15:10;100264.06;;;20.12;100.00
9335;BME280;4706;41.844;26.082;2023-05-17T08:17:36;100266.09;;;20.16;100.00
9335;BME280;4706;41.844;26.082;2023-05-17T08:20:01;100265.00;;;20.20;100.00
9335;BME280;4706;41.844;26.082;2023-05-17T08:22:27;100274.91;;;20.18;100.00
9335;BME280;4706;41.844;26.082;2023-05-17T08:24:52;100263.81;;;20.21;100.00
9335;BME280;4706;41.844;26.082;2023-05-17T08:27:18;100272.84;;;20.37;100.00
9335;BME280;4706;41.844;26.082;2023-05-17T08:29:43;100262.84;;;20.36;100.00
9335;BME280;4706;41.844;26.082;2023-05-17T08:32:09;100266.38;;;20.33;100.00
9335;BME280;4706;41.844;26.082;2023-05-17T08:34:34;100260.50;;;20.38;100.00
9335;BME280;4706;41.844;26.082;2023-05-17T08:37:01;100272.94;;;20.45;100.00
9335;BME280;4706;41.844;26.082;2023-05-17T08:39:26;100277.69;;;20.41;100.00
9335;BME280;4706;41.844;26.082;2023-05-17T08:41:52;100275.16;;;20.32;100.00
9335;BME280;4706;41.844;26.082;2023-05-17T08:44:18;100268.97;;;20.46;100.00
9335;BME280;4706;41.844;26.082;2023-05-17T08:46:45;100266.75;;;20.55;100.00
9335;BME280;4706;41.844;26.082;2023-05-17T08:49:19;100274.13;;;20.44;100.00
9335;BME280;4706;41.844;26.082;2023-05-17T08:51:48;100268.22;;;20.49;100.00
9335;BME280;4706;41.844;26.082;2023-05-17T08:54:14;100264.22;;;20.46;100.00
9335;BME280;4706;41.844;26.082;2023-05-17T08:56:41;100271.97;;;20.56;100.00
9335;BME280;4706;41.844;26.082;2023-05-17T08:59:07;100272.19;;;20.71;100.00
9335;BME280;4706;41.844;26.082;2023-05-17T09:01:38;100269.78;;;20.69;100.00
9335;BME280;4706;41.844;26.082;2023-05-17T09:04:07;100274.50;;;20.65;100.00
9335;BME280;4706;41.844;26.082;2023-05-17T09:06:34;100272.72;;;20.53;100.00
9335;BME280;4706;41.844;26.082;2023-05-17T09:08:59;100269.78;;;20.69;100.00
9335;BME280;4706;41.844;26.082;2023-05-17T09:11:28;100276.69;;;20.79;100.00
9335;BME280;4706;41.844;26.082;2023-05-17T09:14:04;100279.59;;;20.86;100.00
9335;BME280;4706;41.844;26.082;2023-05-17T09:16:31;100276.31;;;20.80;100.00
9335;BME280;4706;41.844;26.082;2023-05-17T09:18:58;100289.91;;;20.82;100.00
9335;BME280;4706;41.844;26.082;2023-05-17T09:21:24;100282.38;;;20.86;100.00
9335;BME280;4706;41.844;26.082;2023-05-17T09:23:52;100279.00;;;20.73;100.00
9335;BME280;4706;41.844;26.082;2023-05-17T09:26:18;100276.84;;;20.63;100.00
9335;BME280;4706;41.844;26.082;2023-05-17T09:28:44;100274.75;;;20.56;100.00
9335;BME280;4706;41.844;26.082;2023-05-17T09:31:10;100270.03;;;20.60;100.00
9335;BME280;4706;41.844;26.082;2023-05-17T09:33:47;100262.38;;;20.54;100.00
9335;BME280;4706;41.844;26.082;2023-05-17T09:36:16;100268.00;;;20.57;100.00
9335;BME280;4706;41.844;26.082;2023-05-17T09:38:51;100268.00;;;20.34;100.00
9335;BME280;4706;41.844;26.082;2023-05-17T09:41:17;100263.34;;;20.19;100.00
9335;BME280;4706;41.844;26.082;2023-05-17T09:43:42;100266.16;;;20.19;100.00
9335;BME280;4706;41.844;26.082;2023-05-17T09:46:08;100254.56;;;19.94;100.00
9335;BME280;4706;41.844;26.082;2023-05-17T09:48:37;100240.28;;;19.76;100.00
9335;BME280;4706;41.844;26.082;2023-05-17T09:51:03;100262.47;;;19.69;100.00
9335;BME280;4706;41.844;26.082;2023-05-17T09:53:31;100268.44;;;19.68;100.00
9335;BME280;4706;41.844;26.082;2023-05-17T09:55:59;100260.22;;;19.75;100.00
9335;BME280;4706;41.844;26.082;2023-05-17T09:58:26;100258.22;;;19.75;100.00
9335;BME280;4706;41.844;26.082;2023-05-17T10:00:55;100267.00;;;19.77;100.00
9335;BME280;4706;41.844;26.082;2023-05-17T10:03:25;100262.06;;;19.67;100.00
9335;BME280;4706;41.844;26.082;2023-05-17T10:05:52;100247.81;;;19.53;100.00
9335;BME280;4706;41.844;26.082;2023-05-17T10:08:21;100260.88;;;19.49;100.00
9335;BME280;4706;41.844;26.082;2023-05-17T10:10:47;100249.41;;;19.54;100.00
9335;BME280;4706;41.844;26.082;2023-05-17T10:13:17;100238.09;;;19.66;100.00
9335;BME280;4706;41.844;26.082;2023-05-17T10:15:45;100244.06;;;19.64;100.00
9335;BME280;4706;41.844;26.082;2023-05-17T10:18:12;100243.38;;;19.52;100.00
9335;BME280;4706;41.844;26.082;2023-05-17T10:20:38;100242.97;;;19.50;100.00
9335;BME280;4706;41.844;26.082;2023-05-17T10:23:05;100242.38;;;19.40;100.00
9335;BME280;4706;41.844;26.082;2023-05-17T10:25:31;100244.72;;;19.38;100.00
9335;BME280;4706;41.844;26.082;2023-05-17T10:27:57;100239.00;;;19.31;100.00
9335;BME280;4706;41.844;26.082;2023-05-17T10:30:25;100242.53;;;19.28;100.00
9335;BME280;4706;41.844;26.082;2023-05-17T10:32:51;100226.81;;;19.39;100.00
9335;BME280;4706;41.844;26.082;2023-05-17T10:35:18;100228.13;;;19.46;100.00
9335;BME280;4706;41.844;26.082;2023-05-17T10:37:44;100234.47;;;19.23;100.00
9335;BME280;4706;41.844;26.082;2023-05-17T10:40:10;100235.13;;;19.16;100.00
9335;BME280;4706;41.844;26.082;2023-05-17T10:42:46;100240.28;;;19.14;100.00
9335;BME280;4706;41.844;26.082;2023-05-17T10:45:15;100240.19;;;19.11;100.00
9335;BME280;4706;41.844;26.082;2023-05-17T10:47:41;100236.66;;;19.14;100.00
9335;BME280;4706;41.844;26.082;2023-05-17T10:50:11;100226.19;;;19.27;100.00
9335;BME280;4706;41.844;26.082;2023-05-17T10:52:47;100219.34;;;19.24;100.00
9335;BME280;4706;41.844;26.082;2023-05-17T10:55:18;100226.25;;;19.30;100.00
9335;BME280;4706;41.844;26.082;2023-05-17T10:57:44;100209.47;;;19.07;100.00
9335;BME280;4706;41.844;26.082;2023-05-17T11:00:22;100208.66;;;19.26;100.00
9335;BME280;4706;41.844;26.082;2023-05-17T11:03:10;100212.16;;;19.23;100.00
9335;BME280;4706;41.844;26.082;2023-05-17T11:05:36;100210.09;;;19.20;100.00
9335;BME280;4706;41.844;26.082;2023-05-17T11:08:15;100186.78;;;19.09;100.00
9335;BME280;4706;41.844;26.082;2023-05-17T11:11:12;100217.66;;;19.39;100.00
9335;BME280;4706;41.844;26.082;2023-05-17T11:13:51;100219.25;;;19.40;100.00
9335;BME280;4706;41.844;26.082;2023-05-17T11:16:19;100217.50;;;19.32;100.00
9335;BME280;4706;41.844;26.082;2023-05-17T11:18:47;100218.16;;;19.45;100.00
9335;BME280;4706;41.844;26.082;2023-05-17T11:21:13;100220.56;;;19.46;100.00
9335;BME280;4706;41.844;26.082;2023-05-17T11:23:44;100213.81;;;19.47;100.00
9335;BME280;4706;41.844;26.082;2023-05-17T11:26:20;100202.59;;;19.44;100.00
9335;BME280;4706;41.844;26.082;2023-05-17T11:28:47;100196.72;;;19.49;100.00
9335;BME280;4706;41.844;26.082;2023-05-17T11:31:13;100194.94;;;19.60;100.00
9335;BME280;4706;41.844;26.082;2023-05-17T11:33:44;100195.16;;;19.51;100.00
9335;BME280;4706;41.844;26.082;2023-05-17T11:36:21;100194.00;;;19.52;100.00
9335;BME280;4706;41.844;26.082;2023-05-17T11:38:48;100196.53;;;19.61;100.00
9335;BME280;4706;41.844;26.082;2023-05-17T11:41:19;100187.25;;;19.53;100.00
9335;BME280;4706;41.844;26.082;2023-05-17T11:43:47;100193.69;;;19.57;100.00
9335;BME280;4706;41.844;26.082;2023-05-17T11:46:22;100191.16;;;19.49;100.00
9335;BME280;4706;41.844;26.082;2023-05-17T11:48:51;100198.69;;;19.68;100.00
9335;BME280;4706;41.844;26.082;2023-05-17T11:51:17;100184.34;;;19.69;100.00
9335;BME280;4706;41.844;26.082;2023-05-17T11:53:44;100195.25;;;19.78;100.00
9335;BME280;4706;41.844;26.082;2023-05-17T11:56:11;100196.03;;;19.75;100.00
9335;BME280;4706;41.844;26.082;2023-05-17T11:58:37;100198.31;;;19.50;100.00
9335;BME280;4706;41.844;26.082;2023-05-17T12:01:03;100186.06;;;19.54;100.00
9335;BME280;4706;41.844;26.082;2023-05-17T12:03:31;100180.84;;;19.53;100.00
9335;BME280;4706;41.844;26.082;2023-05-17T12:08:27;100205.81;;;19.88;100.00
9335;BME280;4706;41.844;26.082;2023-05-17T12:10:53;100166.38;;;19.67;100.00
9335;BME280;4706;41.844;26.082;2023-05-17T12:13:20;100193.44;;;19.89;100.00
9335;BME280;4706;41.844;26.082;2023-05-17T12:15:52;100201.03;;;19.88;100.00
9335;BME280;4706;41.844;26.082;2023-05-17T12:18:18;100196.81;;;19.98;100.00
9335;BME280;4706;41.844;26.082;2023-05-17T12:20:55;100200.97;;;19.85;100.00
9335;BME280;4706;41.844;26.082;2023-05-17T12:23:32;100200.53;;;19.83;100.00
9335;BME280;4706;41.844;26.082;2023-05-17T12:26:18;100196.25;;;19.89;100.00
9335;BME280;4706;41.844;26.082;2023-05-17T12:31:21;100191.78;;;19.84;100.00
9335;BME280;4706;41.844;26.082;2023-05-17T12:33:49;100188.59;;;19.82;100.00
9335;BME280;4706;41.844;26.082;2023-05-17T12:36:15;100183.81;;;19.83;100.00
9335;BME280;4706;41.844;26.082;2023-05-17T12:38:43;100173.50;;;19.87;100.00
9335;BME280;4706;41.844;26.082;2023-05-17T12:41:10;100178.41;;;19.94;100.00
9335;BME280;4706;41.844;26.082;2023-05-17T12:43:37;100178.41;;;19.94;100.00
9335;BME280;4706;41.844;26.082;2023-05-17T12:46:08;100164.88;;;19.96;100.00
9335;BME280;4706;41.844;26.082;2023-05-17T12:48:41;100159.91;;;19.85;100.00
9335;BME280;4706;41.844;26.082;2023-05-17T12:51:21;100160.28;;;19.84;100.00
9335;BME280;4706;41.844;26.082;2023-05-17T12:56:21;100167.19;;;19.90;100.00
9335;BME280;4706;41.844;26.082;2023-05-17T12:59:11;100167.13;;;19.86;100.00
9335;BME280;4706;41.844;26.082;2023-05-17T13:01:41;100168.28;;;19.85;100.00
9335;BME280;4706;41.844;26.082;2023-05-17T13:04:07;100156.56;;;19.76;100.00
9335;BME280;4706;41.844;26.082;2023-05-17T13:09:08;100146.34;;;19.84;100.00
9335;BME280;4706;41.844;26.082;2023-05-17T13:11:33;100135.56;;;19.82;100.00
9335;BME280;4706;41.844;26.082;2023-05-17T13:14:05;100138.41;;;19.86;100.00